Terminal Aerodrome Forecast
Issued by NWS

Home | Current Version | Previous Version | Text Only | Print | Product List | Glossary On
Versions: 1 2 3 4 5 6 7 8 9 10 11 12
000
FTUS46 KHNX 262320
TAFMER
TAF
KMER 262320Z 2700/2724 14005KT P6SM SCT050
     FM270300 VRB04KT P6SM VCSH BKN050 OVC100
     FM271200 33005KT 5SM HZ OVC050 PROB30 2712/2715 5SM -RA BR
      OVC025
     FM271500 32003KT 4SM BR OVC040 PROB30 2715/2718 4SM -RA BR
      OVC025
     FM271800 32006KT P6SM BKN050 OVC070=

USA.gov is the U.S. government's official web portal to all federal, state and local government web resources and services.